sensor_id;sensor_type;location;lat;lon;timestamp;temperature;humidity
79301;SHT31;68755;51.984;5.646;2023-12-28T00:00:52;10.7;74.8
79301;SHT31;68755;51.984;5.646;2023-12-28T00:03:22;10.7;74.9
79301;SHT31;68755;51.984;5.646;2023-12-28T00:05:51;10.7;75.1
79301;SHT31;68755;51.984;5.646;2023-12-28T00:08:21;10.7;75.3
79301;SHT31;68755;51.984;5.646;2023-12-28T00:10:50;10.7;75.4
79301;SHT31;68755;51.984;5.646;2023-12-28T00:13:20;10.7;75.5
79301;SHT31;68755;51.984;5.646;2023-12-28T00:15:49;10.7;75.5
79301;SHT31;68755;51.984;5.646;2023-12-28T00:18:19;10.7;75.5
79301;SHT31;68755;51.984;5.646;2023-12-28T00:20:49;10.7;75.5
79301;SHT31;68755;51.984;5.646;2023-12-28T00:23:19;10.8;75.5
79301;SHT31;68755;51.984;5.646;2023-12-28T00:25:49;10.8;75.5
79301;SHT31;68755;51.984;5.646;2023-12-28T00:28:21;10.8;75.7
79301;SHT31;68755;51.984;5.646;2023-12-28T00:30:50;10.8;75.8
79301;SHT31;68755;51.984;5.646;2023-12-28T00:33:20;10.8;75.7
79301;SHT31;68755;51.984;5.646;2023-12-28T00:35:49;10.8;75.7
79301;SHT31;68755;51.984;5.646;2023-12-28T00:38:19;10.8;75.8
79301;SHT31;68755;51.984;5.646;2023-12-28T00:40:48;10.8;75.8
79301;SHT31;68755;51.984;5.646;2023-12-28T00:43:18;10.9;76.0
79301;SHT31;68755;51.984;5.646;2023-12-28T00:45:48;10.9;75.8
79301;SHT31;68755;51.984;5.646;2023-12-28T00:48:17;10.9;76.1
79301;SHT31;68755;51.984;5.646;2023-12-28T00:50:47;10.9;76.1
79301;SHT31;68755;51.984;5.646;2023-12-28T00:53:16;10.9;76.1
79301;SHT31;68755;51.984;5.646;2023-12-28T00:55:48;10.9;76.0
79301;SHT31;68755;51.984;5.646;2023-12-28T00:58:18;10.9;76.0
79301;SHT31;68755;51.984;5.646;2023-12-28T01:00:48;10.9;76.1
79301;SHT31;68755;51.984;5.646;2023-12-28T01:03:22;10.9;76.3
79301;SHT31;68755;51.984;5.646;2023-12-28T01:05:53;10.9;76.3
79301;SHT31;68755;51.984;5.646;2023-12-28T01:08:22;10.9;76.3
79301;SHT31;68755;51.984;5.646;2023-12-28T01:10:52;10.9;76.4
79301;SHT31;68755;51.984;5.646;2023-12-28T01:13:22;10.9;76.4
79301;SHT31;68755;51.984;5.646;2023-12-28T01:15:51;10.9;76.4
79301;SHT31;68755;51.984;5.646;2023-12-28T01:18:21;10.9;76.2
79301;SHT31;68755;51.984;5.646;2023-12-28T01:20:50;10.9;76.3
79301;SHT31;68755;51.984;5.646;2023-12-28T01:23:20;10.9;76.3
79301;SHT31;68755;51.984;5.646;2023-12-28T01:25:52;10.9;76.5
79301;SHT31;68755;51.984;5.646;2023-12-28T01:28:21;10.9;76.4
79301;SHT31;68755;51.984;5.646;2023-12-28T01:30:51;10.9;76.5
79301;SHT31;68755;51.984;5.646;2023-12-28T01:33:20;10.8;76.6
79301;SHT31;68755;51.984;5.646;2023-12-28T01:35:50;10.8;76.5
79301;SHT31;68755;51.984;5.646;2023-12-28T01:38:20;10.8;76.5
79301;SHT31;68755;51.984;5.646;2023-12-28T01:40:49;10.8;76.7
79301;SHT31;68755;51.984;5.646;2023-12-28T01:43:19;10.8;76.9
79301;SHT31;68755;51.984;5.646;2023-12-28T01:45:51;10.8;77.2
79301;SHT31;68755;51.984;5.646;2023-12-28T01:48:21;10.8;77.3
79301;SHT31;68755;51.984;5.646;2023-12-28T01:50:51;10.8;77.3
79301;SHT31;68755;51.984;5.646;2023-12-28T01:53:21;10.8;77.4
79301;SHT31;68755;51.984;5.646;2023-12-28T01:55:51;10.8;77.5
79301;SHT31;68755;51.984;5.646;2023-12-28T01:58:22;10.8;77.3
79301;SHT31;68755;51.984;5.646;2023-12-28T02:00:55;10.8;77.3
79301;SHT31;68755;51.984;5.646;2023-12-28T02:03:25;10.8;77.4
79301;SHT31;68755;51.984;5.646;2023-12-28T02:05:55;10.8;77.3
79301;SHT31;68755;51.984;5.646;2023-12-28T02:08:27;10.8;77.2
79301;SHT31;68755;51.984;5.646;2023-12-28T02:10:56;10.8;77.3
79301;SHT31;68755;51.984;5.646;2023-12-28T02:13:26;10.7;77.4
79301;SHT31;68755;51.984;5.646;2023-12-28T02:16:00;10.7;77.5
79301;SHT31;68755;51.984;5.646;2023-12-28T02:18:41;10.7;77.5
79301;SHT31;68755;51.984;5.646;2023-12-28T02:21:13;10.7;77.6
79301;SHT31;68755;51.984;5.646;2023-12-28T02:23:48;10.7;77.7
79301;SHT31;68755;51.984;5.646;2023-12-28T02:26:18;10.7;77.8
79301;SHT31;68755;51.984;5.646;2023-12-28T02:28:48;10.7;77.9
79301;SHT31;68755;51.984;5.646;2023-12-28T02:31:28;10.7;77.8
79301;SHT31;68755;51.984;5.646;2023-12-28T02:34:06;10.6;77.9
79301;SHT31;68755;51.984;5.646;2023-12-28T02:36:41;10.6;77.9
79301;SHT31;68755;51.984;5.646;2023-12-28T02:39:14;10.6;77.9
79301;SHT31;68755;51.984;5.646;2023-12-28T02:41:45;10.6;77.9
79301;SHT31;68755;51.984;5.646;2023-12-28T02:44:17;10.6;78.1
79301;SHT31;68755;51.984;5.646;2023-12-28T02:46:47;10.6;78.1
79301;SHT31;68755;51.984;5.646;2023-12-28T02:49:17;10.6;78.1
79301;SHT31;68755;51.984;5.646;2023-12-28T02:51:46;10.6;78.2
79301;SHT31;68755;51.984;5.646;2023-12-28T02:54:16;10.6;78.2
79301;SHT31;68755;51.984;5.646;2023-12-28T02:56:46;10.6;78.3
79301;SHT31;68755;51.984;5.646;2023-12-28T02:59:15;10.6;78.3
79301;SHT31;68755;51.984;5.646;2023-12-28T03:01:45;10.5;78.4
79301;SHT31;68755;51.984;5.646;2023-12-28T03:04:14;10.5;78.4
79301;SHT31;68755;51.984;5.646;2023-12-28T03:06:46;10.5;78.6
79301;SHT31;68755;51.984;5.646;2023-12-28T03:09:16;10.5;78.6
79301;SHT31;68755;51.984;5.646;2023-12-28T03:11:45;10.5;78.6
79301;SHT31;68755;51.984;5.646;2023-12-28T03:14:15;10.5;78.7
79301;SHT31;68755;51.984;5.646;2023-12-28T03:16:45;10.5;78.6
79301;SHT31;68755;51.984;5.646;2023-12-28T03:19:14;10.5;78.7
79301;SHT31;68755;51.984;5.646;2023-12-28T03:21:47;10.5;78.7
79301;SHT31;68755;51.984;5.646;2023-12-28T03:24:16;10.5;78.8
79301;SHT31;68755;51.984;5.646;2023-12-28T03:26:46;10.5;78.9
79301;SHT31;68755;51.984;5.646;2023-12-28T03:29:16;10.5;78.9
79301;SHT31;68755;51.984;5.646;2023-12-28T03:31:45;10.5;79.0
79301;SHT31;68755;51.984;5.646;2023-12-28T03:34:16;10.5;79.2
79301;SHT31;68755;51.984;5.646;2023-12-28T03:36:46;10.5;79.2
79301;SHT31;68755;51.984;5.646;2023-12-28T03:39:15;10.6;79.2
79301;SHT31;68755;51.984;5.646;2023-12-28T03:41:45;10.6;79.0
79301;SHT31;68755;51.984;5.646;2023-12-28T03:44:14;10.6;78.8
79301;SHT31;68755;51.984;5.646;2023-12-28T03:46:44;10.7;78.7
79301;SHT31;68755;51.984;5.646;2023-12-28T03:49:15;10.7;78.5
79301;SHT31;68755;51.984;5.646;2023-12-28T03:51:44;10.7;78.3
79301;SHT31;68755;51.984;5.646;2023-12-28T03:54:18;10.7;78.3
79301;SHT31;68755;51.984;5.646;2023-12-28T03:56:48;10.8;78.2
79301;SHT31;68755;51.984;5.646;2023-12-28T03:59:18;10.8;78.1
79301;SHT31;68755;51.984;5.646;2023-12-28T04:01:47;10.8;77.9
79301;SHT31;68755;51.984;5.646;2023-12-28T04:04:17;10.8;77.8
79301;SHT31;68755;51.984;5.646;2023-12-28T04:06:48;10.8;77.5
79301;SHT31;68755;51.984;5.646;2023-12-28T04:09:18;10.8;77.3
79301;SHT31;68755;51.984;5.646;2023-12-28T04:11:48;10.9;77.1
79301;SHT31;68755;51.984;5.646;2023-12-28T04:14:18;10.9;77.1
79301;SHT31;68755;51.984;5.646;2023-12-28T04:16:47;10.9;76.8
79301;SHT31;68755;51.984;5.646;2023-12-28T04:19:17;10.9;76.6
79301;SHT31;68755;51.984;5.646;2023-12-28T04:21:47;10.9;76.5
79301;SHT31;68755;51.984;5.646;2023-12-28T04:24:16;10.9;76.5
79301;SHT31;68755;51.984;5.646;2023-12-28T04:26:46;10.9;76.5
79301;SHT31;68755;51.984;5.646;2023-12-28T04:29:15;10.9;76.5
79301;SHT31;68755;51.984;5.646;2023-12-28T04:31:45;10.8;76.4
79301;SHT31;68755;51.984;5.646;2023-12-28T04:34:15;10.8;76.4
79301;SHT31;68755;51.984;5.646;2023-12-28T04:36:44;10.8;76.4
79301;SHT31;68755;51.984;5.646;2023-12-28T04:39:16;10.8;76.7
79301;SHT31;68755;51.984;5.646;2023-12-28T04:41:45;10.8;76.7
79301;SHT31;68755;51.984;5.646;2023-12-28T04:44:15;10.8;76.6
79301;SHT31;68755;51.984;5.646;2023-12-28T04:46:45;10.8;76.4
79301;SHT31;68755;51.984;5.646;2023-12-28T04:49:14;10.8;76.4
79301;SHT31;68755;51.984;5.646;2023-12-28T04:51:45;10.9;76.3
79301;SHT31;68755;51.984;5.646;2023-12-28T04:54:14;10.9;76.2
79301;SHT31;68755;51.984;5.646;2023-12-28T04:56:44;10.9;76.3
79301;SHT31;68755;51.984;5.646;2023-12-28T04:59:14;10.9;76.4
79301;SHT31;68755;51.984;5.646;2023-12-28T05:01:44;10.9;76.3
79301;SHT31;68755;51.984;5.646;2023-12-28T05:04:14;10.9;76.2
79301;SHT31;68755;51.984;5.646;2023-12-28T05:06:43;10.9;75.9
79301;SHT31;68755;51.984;5.646;2023-12-28T05:09:13;11.0;76.1
79301;SHT31;68755;51.984;5.646;2023-12-28T05:11:43;11.0;75.7
79301;SHT31;68755;51.984;5.646;2023-12-28T05:14:12;11.0;75.5
79301;SHT31;68755;51.984;5.646;2023-12-28T05:16:44;11.0;75.5
79301;SHT31;68755;51.984;5.646;2023-12-28T05:19:14;11.1;75.4
79301;SHT31;68755;51.984;5.646;2023-12-28T05:21:43;11.1;75.1
79301;SHT31;68755;51.984;5.646;2023-12-28T05:24:14;11.1;75.1
79301;SHT31;68755;51.984;5.646;2023-12-28T05:26:43;11.1;74.8
79301;SHT31;68755;51.984;5.646;2023-12-28T05:29:15;11.2;74.7
79301;SHT31;68755;51.984;5.646;2023-12-28T05:31:44;11.2;74.6
79301;SHT31;68755;51.984;5.646;2023-12-28T05:34:16;11.2;74.4
79301;SHT31;68755;51.984;5.646;2023-12-28T05:36:45;11.2;74.2
79301;SHT31;68755;51.984;5.646;2023-12-28T05:39:17;11.2;74.3
79301;SHT31;68755;51.984;5.646;2023-12-28T05:41:47;11.3;73.8
79301;SHT31;68755;51.984;5.646;2023-12-28T05:44:18;11.3;74.1
79301;SHT31;68755;51.984;5.646;2023-12-28T05:46:48;11.3;73.8
79301;SHT31;68755;51.984;5.646;2023-12-28T05:49:19;11.3;73.8
79301;SHT31;68755;51.984;5.646;2023-12-28T05:51:49;11.3;73.6
79301;SHT31;68755;51.984;5.646;2023-12-28T05:54:21;11.3;73.4
79301;SHT31;68755;51.984;5.646;2023-12-28T05:56:50;11.4;73.4
79301;SHT31;68755;51.984;5.646;2023-12-28T05:59:20;11.4;73.4
79301;SHT31;68755;51.984;5.646;2023-12-28T06:01:53;11.4;73.0
79301;SHT31;68755;51.984;5.646;2023-12-28T06:04:23;11.4;73.2
79301;SHT31;68755;51.984;5.646;2023-12-28T06:06:53;11.4;73.0
79301;SHT31;68755;51.984;5.646;2023-12-28T06:09:22;11.4;73.0
79301;SHT31;68755;51.984;5.646;2023-12-28T06:11:55;11.4;73.1
79301;SHT31;68755;51.984;5.646;2023-12-28T06:14:24;11.5;72.8
79301;SHT31;68755;51.984;5.646;2023-12-28T06:16:54;11.5;72.9
79301;SHT31;68755;51.984;5.646;2023-12-28T06:19:26;11.5;72.8
79301;SHT31;68755;51.984;5.646;2023-12-28T06:21:56;11.5;73.1
79301;SHT31;68755;51.984;5.646;2023-12-28T06:24:26;11.5;72.9
79301;SHT31;68755;51.984;5.646;2023-12-28T06:26:57;11.5;73.1
79301;SHT31;68755;51.984;5.646;2023-12-28T06:29:27;11.5;72.5
79301;SHT31;68755;51.984;5.646;2023-12-28T06:31:57;11.5;72.6
79301;SHT31;68755;51.984;5.646;2023-12-28T06:34:26;11.5;72.5
79301;SHT31;68755;51.984;5.646;2023-12-28T06:36:56;11.5;72.2
79301;SHT31;68755;51.984;5.646;2023-12-28T06:39:26;11.5;72.6
79301;SHT31;68755;51.984;5.646;2023-12-28T06:41:55;11.6;72.4
79301;SHT31;68755;51.984;5.646;2023-12-28T06:44:25;11.6;72.4
79301;SHT31;68755;51.984;5.646;2023-12-28T06:46:55;11.6;72.1
79301;SHT31;68755;51.984;5.646;2023-12-28T06:49:25;11.6;72.4
79301;SHT31;68755;51.984;5.646;2023-12-28T06:51:55;11.6;72.2
79301;SHT31;68755;51.984;5.646;2023-12-28T06:54:24;11.6;72.2
79301;SHT31;68755;51.984;5.646;2023-12-28T06:56:54;11.6;71.9
79301;SHT31;68755;51.984;5.646;2023-12-28T06:59:24;11.6;72.0
79301;SHT31;68755;51.984;5.646;2023-12-28T07:01:55;11.6;72.0
79301;SHT31;68755;51.984;5.646;2023-12-28T07:04:25;11.6;72.1
79301;SHT31;68755;51.984;5.646;2023-12-28T07:06:56;11.7;71.9
79301;SHT31;68755;51.984;5.646;2023-12-28T07:09:26;11.7;71.9
79301;SHT31;68755;51.984;5.646;2023-12-28T07:11:55;11.7;71.4
79301;SHT31;68755;51.984;5.646;2023-12-28T07:14:25;11.7;71.4
79301;SHT31;68755;51.984;5.646;2023-12-28T07:16:55;11.7;71.2
79301;SHT31;68755;51.984;5.646;2023-12-28T07:19:24;11.6;71.0
79301;SHT31;68755;51.984;5.646;2023-12-28T07:21:54;11.6;71.3
79301;SHT31;68755;51.984;5.646;2023-12-28T07:24:23;11.6;71.3
79301;SHT31;68755;51.984;5.646;2023-12-28T07:26:55;11.6;71.2
79301;SHT31;68755;51.984;5.646;2023-12-28T07:29:24;11.6;71.3
79301;SHT31;68755;51.984;5.646;2023-12-28T07:31:55;11.6;71.2
79301;SHT31;68755;51.984;5.646;2023-12-28T07:34:24;11.5;71.4
79301;SHT31;68755;51.984;5.646;2023-12-28T07:36:55;11.5;71.6
79301;SHT31;68755;51.984;5.646;2023-12-28T07:39:26;11.5;71.6
79301;SHT31;68755;51.984;5.646;2023-12-28T07:41:56;11.5;71.7
79301;SHT31;68755;51.984;5.646;2023-12-28T07:44:25;11.5;72.0
79301;SHT31;68755;51.984;5.646;2023-12-28T07:46:55;11.4;72.0
79301;SHT31;68755;51.984;5.646;2023-12-28T07:49:25;11.4;72.1
79301;SHT31;68755;51.984;5.646;2023-12-28T07:51:55;11.4;72.6
79301;SHT31;68755;51.984;5.646;2023-12-28T07:54:25;11.4;72.7
79301;SHT31;68755;51.984;5.646;2023-12-28T07:56:55;11.4;72.8
79301;SHT31;68755;51.984;5.646;2023-12-28T07:59:25;11.4;72.6
79301;SHT31;68755;51.984;5.646;2023-12-28T08:01:55;11.4;72.7
79301;SHT31;68755;51.984;5.646;2023-12-28T08:04:26;11.4;72.4
79301;SHT31;68755;51.984;5.646;2023-12-28T08:06:56;11.5;72.4
79301;SHT31;68755;51.984;5.646;2023-12-28T08:09:25;11.5;72.4
79301;SHT31;68755;51.984;5.646;2023-12-28T08:11:55;11.5;72.5
79301;SHT31;68755;51.984;5.646;2023-12-28T08:14:24;11.6;72.5
79301;SHT31;68755;51.984;5.646;2023-12-28T08:16:54;11.6;72.0
79301;SHT31;68755;51.984;5.646;2023-12-28T08:19:24;11.6;71.9
79301;SHT31;68755;51.984;5.646;2023-12-28T08:21:53;11.7;71.7
79301;SHT31;68755;51.984;5.646;2023-12-28T08:24:23;11.7;71.8
79301;SHT31;68755;51.984;5.646;2023-12-28T08:26:52;11.8;71.6
79301;SHT31;68755;51.984;5.646;2023-12-28T08:29:26;11.8;71.6
79301;SHT31;68755;51.984;5.646;2023-12-28T08:31:55;11.8;71.2
79301;SHT31;68755;51.984;5.646;2023-12-28T08:34:25;11.8;71.3
79301;SHT31;68755;51.984;5.646;2023-12-28T08:36:55;11.9;71.4
79301;SHT31;68755;51.984;5.646;2023-12-28T08:39:25;11.9;71.6
79301;SHT31;68755;51.984;5.646;2023-12-28T08:41:56;11.9;71.2
79301;SHT31;68755;51.984;5.646;2023-12-28T08:44:26;12.0;70.8
79301;SHT31;68755;51.984;5.646;2023-12-28T08:46:55;12.0;70.9
79301;SHT31;68755;51.984;5.646;2023-12-28T08:49:25;12.0;70.6
79301;SHT31;68755;51.984;5.646;2023-12-28T08:51:55;12.0;70.4
79301;SHT31;68755;51.984;5.646;2023-12-28T08:54:24;12.0;70.6
79301;SHT31;68755;51.984;5.646;2023-12-28T08:56:54;12.1;70.4
79301;SHT31;68755;51.984;5.646;2023-12-28T08:59:24;12.1;70.3
79301;SHT31;68755;51.984;5.646;2023-12-28T09:01:55;12.1;70.3
79301;SHT31;68755;51.984;5.646;2023-12-28T09:04:24;12.1;69.9
79301;SHT31;68755;51.984;5.646;2023-12-28T09:06:54;12.1;70.3
79301;SHT31;68755;51.984;5.646;2023-12-28T09:09:24;12.1;70.0
79301;SHT31;68755;51.984;5.646;2023-12-28T09:11:53;12.1;69.7
79301;SHT31;68755;51.984;5.646;2023-12-28T09:14:23;12.1;69.6
79301;SHT31;68755;51.984;5.646;2023-12-28T09:16:52;12.1;69.5
79301;SHT31;68755;51.984;5.646;2023-12-28T09:19:22;12.1;70.0
79301;SHT31;68755;51.984;5.646;2023-12-28T09:21:52;12.1;70.0
79301;SHT31;68755;51.984;5.646;2023-12-28T09:24:21;12.1;70.1
79301;SHT31;68755;51.984;5.646;2023-12-28T09:26:51;12.1;70.3
79301;SHT31;68755;51.984;5.646;2023-12-28T09:29:20;12.1;70.1
79301;SHT31;68755;51.984;5.646;2023-12-28T09:31:50;12.1;70.1
79301;SHT31;68755;51.984;5.646;2023-12-28T09:34:20;12.1;70.1
79301;SHT31;68755;51.984;5.646;2023-12-28T09:36:49;12.1;70.1
79301;SHT31;68755;51.984;5.646;2023-12-28T09:39:21;12.1;70.4
79301;SHT31;68755;51.984;5.646;2023-12-28T09:41:55;12.1;70.1
79301;SHT31;68755;51.984;5.646;2023-12-28T09:44:30;12.1;70.4
79301;SHT31;68755;51.984;5.646;2023-12-28T09:47:01;12.1;70.4
79301;SHT31;68755;51.984;5.646;2023-12-28T09:49:35;12.1;70.3
79301;SHT31;68755;51.984;5.646;2023-12-28T09:52:06;12.1;70.2
79301;SHT31;68755;51.984;5.646;2023-12-28T09:54:36;12.1;70.4
79301;SHT31;68755;51.984;5.646;2023-12-28T09:57:08;12.1;70.4
79301;SHT31;68755;51.984;5.646;2023-12-28T09:59:39;12.1;70.0
79301;SHT31;68755;51.984;5.646;2023-12-28T10:02:10;12.1;70.1
79301;SHT31;68755;51.984;5.646;2023-12-28T10:04:40;12.2;70.0
79301;SHT31;68755;51.984;5.646;2023-12-28T10:07:09;12.2;70.0
79301;SHT31;68755;51.984;5.646;2023-12-28T10:09:39;12.2;69.5
79301;SHT31;68755;51.984;5.646;2023-12-28T10:12:09;12.2;69.8
79301;SHT31;68755;51.984;5.646;2023-12-28T10:14:39;12.2;69.9
79301;SHT31;68755;51.984;5.646;2023-12-28T10:17:09;12.2;69.8
79301;SHT31;68755;51.984;5.646;2023-12-28T10:19:38;12.2;70.0
79301;SHT31;68755;51.984;5.646;2023-12-28T10:22:09;12.2;69.8
79301;SHT31;68755;51.984;5.646;2023-12-28T10:24:43;12.3;69.3
79301;SHT31;68755;51.984;5.646;2023-12-28T10:27:14;12.3;69.2
79301;SHT31;68755;51.984;5.646;2023-12-28T10:29:46;12.3;69.8
79301;SHT31;68755;51.984;5.646;2023-12-28T10:32:15;12.3;69.3
79301;SHT31;68755;51.984;5.646;2023-12-28T10:34:46;12.3;69.6
79301;SHT31;68755;51.984;5.646;2023-12-28T10:37:17;12.3;69.2
79301;SHT31;68755;51.984;5.646;2023-12-28T10:39:55;12.4;69.0
79301;SHT31;68755;51.984;5.646;2023-12-28T10:42:30;12.4;69.2
79301;SHT31;68755;51.984;5.646;2023-12-28T10:45:03;12.4;69.6
79301;SHT31;68755;51.984;5.646;2023-12-28T10:47:38;12.4;69.1
79301;SHT31;68755;51.984;5.646;2023-12-28T10:50:11;12.4;68.8
79301;SHT31;68755;51.984;5.646;2023-12-28T10:52:44;12.4;68.8
79301;SHT31;68755;51.984;5.646;2023-12-28T10:55:27;12.4;68.3
79301;SHT31;68755;51.984;5.646;2023-12-28T10:58:09;12.4;68.5
79301;SHT31;68755;51.984;5.646;2023-12-28T11:00:45;12.4;68.5
79301;SHT31;68755;51.984;5.646;2023-12-28T11:03:26;12.5;68.4
79301;SHT31;68755;51.984;5.646;2023-12-28T11:05:58;12.5;67.9
79301;SHT31;68755;51.984;5.646;2023-12-28T11:08:29;12.5;68.4
79301;SHT31;68755;51.984;5.646;2023-12-28T11:10:59;12.4;68.3
79301;SHT31;68755;51.984;5.646;2023-12-28T11:13:32;12.4;68.0
79301;SHT31;68755;51.984;5.646;2023-12-28T11:16:03;12.4;68.6
79301;SHT31;68755;51.984;5.646;2023-12-28T11:18:33;12.4;68.3
79301;SHT31;68755;51.984;5.646;2023-12-28T11:21:03;12.4;68.0
79301;SHT31;68755;51.984;5.646;2023-12-28T11:23:35;12.4;68.1
79301;SHT31;68755;51.984;5.646;2023-12-28T11:26:17;12.4;68.1
79301;SHT31;68755;51.984;5.646;2023-12-28T11:28:47;12.4;68.3
79301;SHT31;68755;51.984;5.646;2023-12-28T11:31:18;12.4;68.2
79301;SHT31;68755;51.984;5.646;2023-12-28T11:33:50;12.4;68.3
79301;SHT31;68755;51.984;5.646;2023-12-28T11:36:33;12.4;68.0
79301;SHT31;68755;51.984;5.646;2023-12-28T11:39:06;12.4;68.2
79301;SHT31;68755;51.984;5.646;2023-12-28T11:41:37;12.5;68.3
79301;SHT31;68755;51.984;5.646;2023-12-28T11:44:07;12.5;68.3
79301;SHT31;68755;51.984;5.646;2023-12-28T11:46:37;12.5;68.4
79301;SHT31;68755;51.984;5.646;2023-12-28T11:49:07;12.5;68.5
79301;SHT31;68755;51.984;5.646;2023-12-28T11:51:38;12.5;68.3
79301;SHT31;68755;51.984;5.646;2023-12-28T11:54:08;12.5;68.4
79301;SHT31;68755;51.984;5.646;2023-12-28T11:56:38;12.6;68.0
79301;SHT31;68755;51.984;5.646;2023-12-28T11:59:10;12.6;68.0
79301;SHT31;68755;51.984;5.646;2023-12-28T12:01:39;12.6;68.2
79301;SHT31;68755;51.984;5.646;2023-12-28T12:04:09;12.6;68.2
79301;SHT31;68755;51.984;5.646;2023-12-28T12:06:40;12.6;68.2
79301;SHT31;68755;51.984;5.646;2023-12-28T12:09:10;12.6;68.0
79301;SHT31;68755;51.984;5.646;2023-12-28T12:11:40;12.6;67.8
79301;SHT31;68755;51.984;5.646;2023-12-28T12:14:11;12.6;68.2
79301;SHT31;68755;51.984;5.646;2023-12-28T12:16:40;12.6;67.8
79301;SHT31;68755;51.984;5.646;2023-12-28T12:19:10;12.6;68.2
79301;SHT31;68755;51.984;5.646;2023-12-28T12:21:40;12.6;68.0
79301;SHT31;68755;51.984;5.646;2023-12-28T12:24:10;12.6;68.2
79301;SHT31;68755;51.984;5.646;2023-12-28T12:26:40;12.7;68.3
79301;SHT31;68755;51.984;5.646;2023-12-28T12:29:11;12.7;68.2
79301;SHT31;68755;51.984;5.646;2023-12-28T12:31:42;12.7;67.8
79301;SHT31;68755;51.984;5.646;2023-12-28T12:34:15;12.7;67.8
79301;SHT31;68755;51.984;5.646;2023-12-28T12:36:47;12.7;67.6
79301;SHT31;68755;51.984;5.646;2023-12-28T12:39:23;12.7;67.5
79301;SHT31;68755;51.984;5.646;2023-12-28T12:41:53;12.7;67.5
79301;SHT31;68755;51.984;5.646;2023-12-28T12:44:24;12.8;67.4
79301;SHT31;68755;51.984;5.646;2023-12-28T12:47:04;12.8;67.3
79301;SHT31;68755;51.984;5.646;2023-12-28T12:49:33;12.8;67.0
79301;SHT31;68755;51.984;5.646;2023-12-28T12:52:04;12.8;67.2
79301;SHT31;68755;51.984;5.646;2023-12-28T12:54:33;12.8;66.5
79301;SHT31;68755;51.984;5.646;2023-12-28T12:57:04;12.8;66.3
79301;SHT31;68755;51.984;5.646;2023-12-28T12:59:37;12.8;66.4
79301;SHT31;68755;51.984;5.646;2023-12-28T13:02:10;12.8;66.6
79301;SHT31;68755;51.984;5.646;2023-12-28T13:04:40;12.8;66.8
79301;SHT31;68755;51.984;5.646;2023-12-28T13:07:10;12.8;66.4
79301;SHT31;68755;51.984;5.646;2023-12-28T13:09:40;12.8;66.6
79301;SHT31;68755;51.984;5.646;2023-12-28T13:12:10;12.8;66.5
79301;SHT31;68755;51.984;5.646;2023-12-28T13:14:42;12.8;66.1
79301;SHT31;68755;51.984;5.646;2023-12-28T13:17:15;12.8;66.5
79301;SHT31;68755;51.984;5.646;2023-12-28T13:19:46;12.8;66.1
79301;SHT31;68755;51.984;5.646;2023-12-28T13:22:15;12.8;66.2
79301;SHT31;68755;51.984;5.646;2023-12-28T13:24:46;12.8;65.7
79301;SHT31;68755;51.984;5.646;2023-12-28T13:27:16;12.8;66.4
79301;SHT31;68755;51.984;5.646;2023-12-28T13:29:46;12.8;65.8
79301;SHT31;68755;51.984;5.646;2023-12-28T13:32:15;12.8;66.0
79301;SHT31;68755;51.984;5.646;2023-12-28T13:34:45;12.8;66.1
79301;SHT31;68755;51.984;5.646;2023-12-28T13:37:15;12.8;66.1
79301;SHT31;68755;51.984;5.646;2023-12-28T13:39:45;12.8;66.2
79301;SHT31;68755;51.984;5.646;2023-12-28T13:42:16;12.8;66.3
79301;SHT31;68755;51.984;5.646;2023-12-28T13:44:48;12.8;66.5
79301;SHT31;68755;51.984;5.646;2023-12-28T13:47:19;12.8;66.5
79301;SHT31;68755;51.984;5.646;2023-12-28T13:49:51;12.8;66.9
79301;SHT31;68755;51.984;5.646;2023-12-28T13:52:21;12.8;66.6
79301;SHT31;68755;51.984;5.646;2023-12-28T13:54:52;12.8;66.2
79301;SHT31;68755;51.984;5.646;2023-12-28T13:57:22;12.8;66.4
79301;SHT31;68755;51.984;5.646;2023-12-28T13:59:51;12.8;66.4
79301;SHT31;68755;51.984;5.646;2023-12-28T14:02:21;12.7;66.9
79301;SHT31;68755;51.984;5.646;2023-12-28T14:04:51;12.7;66.4
79301;SHT31;68755;51.984;5.646;2023-12-28T14:07:22;12.7;66.5
79301;SHT31;68755;51.984;5.646;2023-12-28T14:09:52;12.7;66.9
79301;SHT31;68755;51.984;5.646;2023-12-28T14:12:21;12.7;67.1
79301;SHT31;68755;51.984;5.646;2023-12-28T14:14:51;12.7;66.9
79301;SHT31;68755;51.984;5.646;2023-12-28T14:17:20;12.7;66.8
79301;SHT31;68755;51.984;5.646;2023-12-28T14:19:50;12.7;67.0
79301;SHT31;68755;51.984;5.646;2023-12-28T14:22:21;12.7;67.1
79301;SHT31;68755;51.984;5.646;2023-12-28T14:24:52;12.7;67.2
79301;SHT31;68755;51.984;5.646;2023-12-28T14:27:23;12.7;67.3
79301;SHT31;68755;51.984;5.646;2023-12-28T14:29:54;12.7;67.0
79301;SHT31;68755;51.984;5.646;2023-12-28T14:32:24;12.7;67.4
79301;SHT31;68755;51.984;5.646;2023-12-28T14:34:54;12.7;67.4
79301;SHT31;68755;51.984;5.646;2023-12-28T14:37:24;12.7;67.6
79301;SHT31;68755;51.984;5.646;2023-12-28T14:39:54;12.7;67.4
79301;SHT31;68755;51.984;5.646;2023-12-28T14:42:24;12.7;67.4
79301;SHT31;68755;51.984;5.646;2023-12-28T14:44:54;12.7;67.7
79301;SHT31;68755;51.984;5.646;2023-12-28T14:47:23;12.7;67.5
79301;SHT31;68755;51.984;5.646;2023-12-28T14:49:53;12.7;67.8
79301;SHT31;68755;51.984;5.646;2023-12-28T14:52:24;12.6;67.7
79301;SHT31;68755;51.984;5.646;2023-12-28T14:54:54;12.6;68.0
79301;SHT31;68755;51.984;5.646;2023-12-28T14:57:25;12.6;67.9
79301;SHT31;68755;51.984;5.646;2023-12-28T14:59:56;12.6;67.8
79301;SHT31;68755;51.984;5.646;2023-12-28T15:02:27;12.6;67.8
79301;SHT31;68755;51.984;5.646;2023-12-28T15:04:58;12.6;68.1
79301;SHT31;68755;51.984;5.646;2023-12-28T15:07:28;12.6;67.8
79301;SHT31;68755;51.984;5.646;2023-12-28T15:09:59;12.6;67.9
79301;SHT31;68755;51.984;5.646;2023-12-28T15:12:29;12.6;68.2
79301;SHT31;68755;51.984;5.646;2023-12-28T15:14:59;12.6;67.9
79301;SHT31;68755;51.984;5.646;2023-12-28T15:17:32;12.6;67.9
79301;SHT31;68755;51.984;5.646;2023-12-28T15:20:02;12.6;67.7
79301;SHT31;68755;51.984;5.646;2023-12-28T15:22:35;12.6;67.6
79301;SHT31;68755;51.984;5.646;2023-12-28T15:25:06;12.6;67.6
79301;SHT31;68755;51.984;5.646;2023-12-28T15:27:37;12.6;67.7
79301;SHT31;68755;51.984;5.646;2023-12-28T15:30:08;12.6;67.9
79301;SHT31;68755;51.984;5.646;2023-12-28T15:32:39;12.6;67.8
79301;SHT31;68755;51.984;5.646;2023-12-28T15:35:12;12.6;68.0
79301;SHT31;68755;51.984;5.646;2023-12-28T15:37:46;12.6;67.8
79301;SHT31;68755;51.984;5.646;2023-12-28T15:40:17;12.6;67.7
79301;SHT31;68755;51.984;5.646;2023-12-28T15:42:49;12.6;67.9
79301;SHT31;68755;51.984;5.646;2023-12-28T15:45:20;12.6;68.1
79301;SHT31;68755;51.984;5.646;2023-12-28T15:47:49;12.6;67.6
79301;SHT31;68755;51.984;5.646;2023-12-28T15:50:21;12.6;67.3
79301;SHT31;68755;51.984;5.646;2023-12-28T15:52:51;12.6;67.7
79301;SHT31;68755;51.984;5.646;2023-12-28T15:55:21;12.6;67.4
79301;SHT31;68755;51.984;5.646;2023-12-28T15:57:52;12.5;67.4
79301;SHT31;68755;51.984;5.646;2023-12-28T16:00:22;12.5;67.4
79301;SHT31;68755;51.984;5.646;2023-12-28T16:02:53;12.5;67.4
79301;SHT31;68755;51.984;5.646;2023-12-28T16:05:23;12.5;67.3
79301;SHT31;68755;51.984;5.646;2023-12-28T16:07:53;12.5;67.2
79301;SHT31;68755;51.984;5.646;2023-12-28T16:10:24;12.5;67.6
79301;SHT31;68755;51.984;5.646;2023-12-28T16:12:55;12.5;67.6
79301;SHT31;68755;51.984;5.646;2023-12-28T16:15:27;12.5;67.6
79301;SHT31;68755;51.984;5.646;2023-12-28T16:17:59;12.5;67.7
79301;SHT31;68755;51.984;5.646;2023-12-28T16:20:30;12.4;67.9
79301;SHT31;68755;51.984;5.646;2023-12-28T16:23:01;12.4;67.9